createdAt,value
2023-02-19T00:00:16.103Z,100334.09
2023-02-19T00:03:28.733Z,100328.25
2023-02-19T00:06:41.408Z,100323.81
2023-02-19T00:09:54.022Z,100328.59
2023-02-19T00:13:06.399Z,100337.44
2023-02-19T00:16:20.918Z,100334.44
2023-02-19T00:19:33.238Z,100341.06
2023-02-19T00:22:45.820Z,100332.66
2023-02-19T00:26:17.296Z,100339.06
2023-02-19T00:29:30.997Z,100348.31
2023-02-19T00:32:44.080Z,100357.19
2023-02-19T00:36:00.737Z,100352.72
2023-02-19T00:39:15.519Z,100345.69
2023-02-19T00:42:28.466Z,100338.19
2023-02-19T00:45:40.820Z,100336.56
2023-02-19T00:48:53.584Z,100341.78
2023-02-19T00:52:06.032Z,100343.97
2023-02-19T00:55:18.895Z,100353.00
2023-02-19T00:58:31.230Z,100347.75
2023-02-19T01:01:44.880Z,100345.28
2023-02-19T01:04:57.370Z,100338.66
2023-02-19T01:08:10.018Z,100329.63
2023-02-19T01:11:22.419Z,100350.19
2023-02-19T01:14:35.632Z,100344.28
2023-02-19T01:17:47.988Z,100338.03
2023-02-19T01:21:00.754Z,100346.59
2023-02-19T01:24:13.147Z,100347.62
2023-02-19T01:27:25.776Z,100335.06
2023-02-19T01:30:38.364Z,100335.13
2023-02-19T01:33:53.303Z,100325.72
2023-02-19T01:37:05.870Z,100336.47
2023-02-19T01:40:18.602Z,100333.69
2023-02-19T01:43:34.250Z,100321.22
2023-02-19T01:46:48.574Z,100319.44
2023-02-19T01:50:01.341Z,100324.28
2023-02-19T01:53:14.731Z,100335.81
2023-02-19T01:56:27.177Z,100332.19
2023-02-19T01:59:40.232Z,100335.16
2023-02-19T02:02:53.025Z,100326.41
2023-02-19T02:06:09.453Z,100321.50
2023-02-19T02:09:42.835Z,100320.44
2023-02-19T02:12:57.162Z,100312.88
2023-02-19T02:16:15.758Z,100316.47
2023-02-19T02:19:43.612Z,100324.97
2023-02-19T02:23:16.916Z,100322.56
2023-02-19T02:26:41.766Z,100317.47
2023-02-19T02:30:16.128Z,100315.09
2023-02-19T02:33:37.350Z,100323.53
2023-02-19T02:36:51.764Z,100328.25
2023-02-19T02:40:04.800Z,100316.97
2023-02-19T02:43:17.292Z,100297.25
2023-02-19T02:46:36.122Z,100308.41
2023-02-19T02:50:05.237Z,100321.31
2023-02-19T02:53:54.017Z,100319.44
2023-02-19T02:57:06.428Z,100323.59
2023-02-19T03:00:19.805Z,100321.22
2023-02-19T03:03:32.574Z,100321.09
2023-02-19T03:06:45.270Z,100323.53
2023-02-19T03:09:58.467Z,100319.16
2023-02-19T03:13:32.036Z,100314.38
2023-02-19T03:17:03.422Z,100313.84
2023-02-19T03:20:16.614Z,100329.09
2023-02-19T03:23:48.619Z,100330.47
2023-02-19T03:27:02.698Z,100322.84
2023-02-19T03:30:20.899Z,100318.44
2023-02-19T03:33:33.980Z,100320.19
2023-02-19T03:36:50.906Z,100323.25
2023-02-19T03:40:03.650Z,100326.03
2023-02-19T03:43:20.060Z,100325.97
2023-02-19T03:46:46.229Z,100322.72
2023-02-19T03:50:17.399Z,100324.22
2023-02-19T03:53:50.183Z,100312.94
2023-02-19T03:57:05.787Z,100310.53
2023-02-19T04:00:27.178Z,100303.44
2023-02-19T04:03:49.523Z,100311.25
2023-02-19T04:07:02.028Z,100314.00
2023-02-19T04:10:15.851Z,100316.44
2023-02-19T04:13:34.982Z,100319.53
2023-02-19T04:16:49.949Z,100319.06
2023-02-19T04:20:04.047Z,100312.56
2023-02-19T04:23:18.681Z,100306.69
2023-02-19T04:26:31.422Z,100315.59
2023-02-19T04:29:44.136Z,100318.66
2023-02-19T04:32:56.524Z,100300.91
2023-02-19T04:36:10.610Z,100309.81
2023-02-19T04:39:22.910Z,100307.22
2023-02-19T04:42:37.628Z,100296.91
2023-02-19T04:45:49.993Z,100317.84
2023-02-19T04:49:02.641Z,100321.06
2023-02-19T04:52:15.019Z,100319.81
2023-02-19T04:55:27.615Z,100314.59
2023-02-19T04:58:40.124Z,100318.66
2023-02-19T05:01:52.746Z,100314.59
2023-02-19T05:05:05.257Z,100324.50
2023-02-19T05:08:17.925Z,100321.25
2023-02-19T05:11:30.263Z,100329.69
2023-02-19T05:14:42.856Z,100331.28
2023-02-19T05:17:55.217Z,100331.81
2023-02-19T05:21:08.221Z,100325.28
2023-02-19T05:24:20.798Z,100329.31
2023-02-19T05:27:33.431Z,100330.41
2023-02-19T05:30:50.337Z,100337.31
2023-02-19T05:34:03.298Z,100324.00
2023-02-19T05:37:16.422Z,100333.47
2023-02-19T05:40:29.102Z,100327.41
2023-02-19T05:43:42.062Z,100325.37
2023-02-19T05:46:54.679Z,100327.22
2023-02-19T05:50:07.158Z,100321.97
2023-02-19T05:53:19.803Z,100320.88
2023-02-19T05:56:39.297Z,100316.31
2023-02-19T05:59:51.915Z,100328.72
2023-02-19T06:03:04.321Z,100336.44
2023-02-19T06:06:17.856Z,100325.03
2023-02-19T06:09:30.243Z,100331.50
2023-02-19T06:12:42.868Z,100344.63
2023-02-19T06:15:55.259Z,100348.13
2023-02-19T06:19:07.938Z,100338.66
2023-02-19T06:22:20.273Z,100342.28
2023-02-19T06:25:32.846Z,100350.84
2023-02-19T06:28:45.421Z,100344.78
2023-02-19T06:31:58.505Z,100349.47
2023-02-19T06:35:10.900Z,100351.81
2023-02-19T06:38:23.492Z,100345.47
2023-02-19T06:41:35.813Z,100332.09
2023-02-19T06:44:48.406Z,100335.94
2023-02-19T06:48:00.760Z,100328.25
2023-02-19T06:51:23.867Z,100338.34
2023-02-19T06:54:36.221Z,100331.44
2023-02-19T06:57:48.877Z,100318.78
2023-02-19T07:01:01.463Z,100333.97
2023-02-19T07:04:14.337Z,100324.97
2023-02-19T07:07:26.712Z,100331.84
2023-02-19T07:10:39.378Z,100334.78
2023-02-19T07:13:56.152Z,100317.72
2023-02-19T07:17:08.796Z,100331.69
2023-02-19T07:20:21.105Z,100333.56
2023-02-19T07:23:33.858Z,100333.09
2023-02-19T07:26:46.185Z,100334.97
2023-02-19T07:29:59.239Z,100334.91
2023-02-19T07:33:11.595Z,100337.44
2023-02-19T07:36:24.575Z,100332.03
2023-02-19T07:39:36.956Z,100332.31
2023-02-19T07:42:49.573Z,100325.72
2023-02-19T07:46:06.248Z,100320.81
2023-02-19T07:49:19.039Z,100315.50
2023-02-19T07:52:31.384Z,100301.66
2023-02-19T07:55:44.016Z,100310.41
2023-02-19T07:58:56.387Z,100304.03
2023-02-19T08:02:37.588Z,100304.59
2023-02-19T08:05:51.512Z,100312.28
2023-02-19T08:09:04.533Z,100326.25
2023-02-19T08:12:35.771Z,100325.37
2023-02-19T08:16:26.620Z,100326.09
2023-02-19T08:19:46.032Z,100334.50
2023-02-19T08:22:58.362Z,100336.22
2023-02-19T08:26:11.074Z,100344.81
2023-02-19T08:29:23.483Z,100349.22
2023-02-19T08:32:36.098Z,100354.78
2023-02-19T08:35:48.461Z,100347.06
2023-02-19T08:39:01.149Z,100365.94
2023-02-19T08:42:13.512Z,100363.41
2023-02-19T08:45:26.199Z,100360.53
2023-02-19T08:48:38.949Z,100358.56
2023-02-19T08:51:51.564Z,100365.53
2023-02-19T08:55:05.032Z,100351.91
2023-02-19T08:58:17.880Z,100354.16
2023-02-19T09:01:30.248Z,100356.47
2023-02-19T09:04:42.877Z,100346.09
2023-02-19T09:07:55.341Z,100347.62
2023-02-19T09:11:09.733Z,100353.78
2023-02-19T09:14:22.363Z,100353.34
2023-02-19T09:17:35.106Z,100353.88
2023-02-19T09:20:47.469Z,100338.37
2023-02-19T09:24:00.048Z,100343.66
2023-02-19T09:27:16.720Z,100346.50
2023-02-19T09:30:29.355Z,100335.50
2023-02-19T09:33:45.278Z,100335.50
2023-02-19T09:36:57.990Z,100338.25
2023-02-19T09:40:10.516Z,100339.00
2023-02-19T09:43:23.259Z,100339.44
2023-02-19T09:46:47.075Z,100325.53
2023-02-19T09:50:01.421Z,100316.59
2023-02-19T09:53:40.268Z,100312.91
2023-02-19T09:56:56.686Z,100312.09
2023-02-19T10:00:12.493Z,100321.63
2023-02-19T10:03:36.096Z,100322.66
2023-02-19T10:06:48.432Z,100302.50
2023-02-19T10:10:14.498Z,100298.06
2023-02-19T10:13:32.922Z,100295.19
2023-02-19T10:16:45.790Z,100287.53
2023-02-19T10:19:58.153Z,100287.94
2023-02-19T10:23:11.102Z,100280.00
2023-02-19T10:26:23.922Z,100273.16
2023-02-19T10:29:36.628Z,100265.25
2023-02-19T10:32:59.775Z,100255.53
2023-02-19T10:36:37.605Z,100265.31
2023-02-19T10:39:50.050Z,100259.44
2023-02-19T10:43:03.731Z,100244.66
2023-02-19T10:46:27.685Z,100250.41
2023-02-19T10:49:40.343Z,100240.69
2023-02-19T10:52:54.595Z,100241.78
2023-02-19T10:56:09.475Z,100241.47
2023-02-19T10:59:25.356Z,100240.37
2023-02-19T11:02:38.006Z,100228.88
2023-02-19T11:06:00.117Z,100214.28
2023-02-19T11:09:26.770Z,100229.88
2023-02-19T11:12:39.203Z,100212.22
2023-02-19T11:15:53.118Z,100199.28
2023-02-19T11:19:05.464Z,100189.56
2023-02-19T11:22:33.085Z,100183.75
2023-02-19T11:25:53.038Z,100165.87
2023-02-19T11:29:18.073Z,100167.06
2023-02-19T11:32:30.898Z,100164.19
2023-02-19T11:35:44.302Z,100168.12
2023-02-19T11:38:57.575Z,100160.62
2023-02-19T11:42:13.658Z,100154.47
2023-02-19T11:45:55.109Z,100148.09
2023-02-19T11:49:29.167Z,100136.91
2023-02-19T11:53:00.156Z,100155.06
2023-02-19T11:56:39.166Z,100135.44
2023-02-19T12:00:26.159Z,100182.78
2023-02-19T12:04:12.580Z,100157.47
2023-02-19T12:07:42.056Z,100148.41
2023-02-19T12:11:01.528Z,100148.00
2023-02-19T12:14:24.923Z,100162.84
2023-02-19T12:17:53.853Z,100130.66
2023-02-19T12:21:22.680Z,100153.09
2023-02-19T12:24:54.929Z,100115.63
2023-02-19T12:28:29.319Z,100136.47
2023-02-19T12:32:14.846Z,100114.63
2023-02-19T12:35:35.286Z,100129.03
2023-02-19T12:38:58.166Z,100100.19
2023-02-19T12:42:50.163Z,100114.91
2023-02-19T12:46:21.679Z,100114.91
2023-02-19T12:49:39.320Z,100124.97
2023-02-19T12:53:06.082Z,100116.84
2023-02-19T12:56:25.251Z,100128.31
2023-02-19T12:59:43.861Z,100111.09
2023-02-19T13:03:20.959Z,100095.75
2023-02-19T13:06:36.744Z,100128.44
2023-02-19T13:09:57.001Z,100127.94
2023-02-19T13:13:26.625Z,100110.19
2023-02-19T13:16:39.862Z,100083.28
2023-02-19T13:19:57.056Z,100117.25
2023-02-19T13:23:50.611Z,100134.75
2023-02-19T13:27:37.462Z,100125.34
2023-02-19T13:31:24.955Z,100126.03
2023-02-19T13:34:47.904Z,100117.19
2023-02-19T13:38:01.390Z,100110.75
2023-02-19T13:42:02.347Z,100103.88
2023-02-19T13:45:24.364Z,100094.63
2023-02-19T13:48:38.349Z,100103.06
2023-02-19T13:51:54.780Z,100105.69
2023-02-19T13:55:52.108Z,100109.28
2023-02-19T13:59:38.831Z,100099.56
2023-02-19T14:02:51.549Z,100091.16
2023-02-19T14:06:08.645Z,100128.97
2023-02-19T14:09:40.450Z,100173.91
2023-02-19T14:12:53.079Z,100156.50
2023-02-19T14:16:07.289Z,100143.69
2023-02-19T14:19:43.167Z,100150.19
2023-02-19T14:23:01.674Z,100153.28
2023-02-19T14:26:14.303Z,100139.03
2023-02-19T14:29:26.626Z,100146.34
2023-02-19T14:32:40.453Z,100166.47
2023-02-19T14:35:59.202Z,100161.44
2023-02-19T14:39:19.980Z,100225.53
2023-02-19T14:42:34.075Z,100186.91
2023-02-19T14:45:58.459Z,100182.91
2023-02-19T14:49:23.389Z,100205.59
2023-02-19T14:52:40.156Z,100200.72
2023-02-19T14:55:52.547Z,100202.78
2023-02-19T14:59:11.993Z,100219.06
2023-02-19T15:02:26.014Z,100218.22
2023-02-19T15:05:38.711Z,100214.72
2023-02-19T15:08:53.075Z,100220.31
2023-02-19T15:12:05.962Z,100211.41
2023-02-19T15:15:22.713Z,100205.72
2023-02-19T15:18:37.648Z,100212.81
2023-02-19T15:21:50.308Z,100205.09
2023-02-19T15:25:03.876Z,100213.25
2023-02-19T15:28:25.251Z,100223.81
2023-02-19T15:31:45.244Z,100236.97
2023-02-19T15:35:04.487Z,100233.75
2023-02-19T15:38:17.140Z,100258.69
2023-02-19T15:41:32.827Z,100284.37
2023-02-19T15:44:57.768Z,100289.25
2023-02-19T15:48:16.005Z,100287.31
2023-02-19T15:51:34.576Z,100284.94
2023-02-19T15:55:18.260Z,100284.47
2023-02-19T15:58:58.448Z,100284.22
2023-02-19T16:02:12.105Z,100270.00
2023-02-19T16:05:26.398Z,100278.84
2023-02-19T16:08:39.216Z,100293.00
2023-02-19T16:11:53.462Z,100268.03
2023-02-19T16:15:18.991Z,100270.25
2023-02-19T16:18:31.599Z,100267.53
2023-02-19T16:21:43.944Z,100249.97
2023-02-19T16:25:01.795Z,100257.28
2023-02-19T16:28:19.224Z,100261.16
2023-02-19T16:31:31.889Z,100258.44
2023-02-19T16:34:46.894Z,100280.44
2023-02-19T16:37:59.770Z,100300.91
2023-02-19T16:41:12.831Z,100286.06
2023-02-19T16:44:25.508Z,100289.28
2023-02-19T16:47:37.984Z,100296.12
2023-02-19T16:50:50.678Z,100311.91
2023-02-19T16:54:03.023Z,100305.91
2023-02-19T16:57:15.635Z,100304.78
2023-02-19T17:00:29.700Z,100316.34
2023-02-19T17:03:42.429Z,100332.75
2023-02-19T17:06:54.832Z,100328.66
2023-02-19T17:10:07.581Z,100345.44
2023-02-19T17:13:19.930Z,100350.59
2023-02-19T17:16:39.867Z,100354.41
2023-02-19T17:19:52.421Z,100364.09
2023-02-19T17:23:05.090Z,100373.16
2023-02-19T17:26:19.616Z,100366.25
2023-02-19T17:29:33.986Z,100383.03
2023-02-19T17:32:46.315Z,100374.53
2023-02-19T17:35:58.946Z,100409.00
2023-02-19T17:39:15.159Z,100381.44
2023-02-19T17:42:27.791Z,100368.56
2023-02-19T17:45:40.226Z,100372.81
2023-02-19T17:48:52.984Z,100368.06
2023-02-19T17:52:05.552Z,100372.00
2023-02-19T17:55:18.500Z,100368.16
2023-02-19T17:58:30.944Z,100365.81
2023-02-19T18:01:46.020Z,100398.84
2023-02-19T18:04:58.687Z,100385.38
2023-02-19T18:08:11.263Z,100403.06
2023-02-19T18:11:23.926Z,100404.75
2023-02-19T18:14:36.267Z,100405.84
2023-02-19T18:17:48.893Z,100411.03
2023-02-19T18:21:01.225Z,100405.22
2023-02-19T18:24:13.816Z,100414.91
2023-02-19T18:27:26.174Z,100421.97
2023-02-19T18:30:38.891Z,100427.09
2023-02-19T18:33:51.287Z,100424.75
2023-02-19T18:37:03.995Z,100416.22
2023-02-19T18:40:16.397Z,100426.94
2023-02-19T18:43:29.023Z,100444.41
2023-02-19T18:46:41.402Z,100457.81
2023-02-19T18:49:55.273Z,100448.41
2023-02-19T18:53:07.627Z,100446.22
2023-02-19T18:56:20.300Z,100444.03
2023-02-19T18:59:32.863Z,100456.72
2023-02-19T19:02:49.651Z,100455.44
2023-02-19T19:06:03.794Z,100457.09
2023-02-19T19:09:16.437Z,100452.41
2023-02-19T19:12:28.779Z,100465.88
2023-02-19T19:15:41.523Z,100476.22
2023-02-19T19:18:54.322Z,100483.47
2023-02-19T19:22:06.970Z,100502.97
2023-02-19T19:25:19.914Z,100509.53
2023-02-19T19:28:32.559Z,100520.25
2023-02-19T19:31:45.128Z,100537.50
2023-02-19T19:34:57.824Z,100540.91
2023-02-19T19:38:10.129Z,100549.22
2023-02-19T19:41:22.731Z,100559.47
2023-02-19T19:44:35.013Z,100557.84
2023-02-19T19:47:48.866Z,100563.88
2023-02-19T19:51:01.239Z,100588.22
2023-02-19T19:54:13.965Z,100570.38
2023-02-19T19:57:26.303Z,100566.50
2023-02-19T20:00:38.980Z,100567.31
2023-02-19T20:03:51.599Z,100578.63
2023-02-19T20:07:03.965Z,100565.69
2023-02-19T20:10:16.945Z,100569.59
2023-02-19T20:13:30.575Z,100603.16
2023-02-19T20:16:44.696Z,100583.03
2023-02-19T20:19:57.128Z,100598.00
2023-02-19T20:23:09.764Z,100615.88
2023-02-19T20:26:26.440Z,100640.22
2023-02-19T20:29:39.040Z,100635.03
2023-02-19T20:32:51.428Z,100635.38
2023-02-19T20:36:04.230Z,100637.97
2023-02-19T20:39:17.144Z,100641.88
2023-02-19T20:42:29.785Z,100647.37
2023-02-19T20:45:45.708Z,100648.06
2023-02-19T20:48:58.312Z,100652.28
2023-02-19T20:52:10.641Z,100663.94
2023-02-19T20:55:24.945Z,100661.22
2023-02-19T20:58:37.286Z,100669.47
2023-02-19T21:01:50.007Z,100669.81
2023-02-19T21:05:02.351Z,100702.72
2023-02-19T21:08:17.180Z,100701.87
2023-02-19T21:11:29.548Z,100743.66
2023-02-19T21:14:42.186Z,100722.28
2023-02-19T21:17:54.502Z,100726.47
2023-02-19T21:21:07.375Z,100716.03
2023-02-19T21:24:19.732Z,100730.53
2023-02-19T21:27:32.321Z,100739.28
2023-02-19T21:30:44.710Z,100737.16
2023-02-19T21:33:57.357Z,100749.63
2023-02-19T21:37:09.674Z,100747.62
2023-02-19T21:40:23.467Z,100756.72
2023-02-19T21:43:35.832Z,100747.62
2023-02-19T21:46:48.556Z,100750.16
2023-02-19T21:50:00.930Z,100768.59
2023-02-19T21:53:13.828Z,100765.78
2023-02-19T21:56:27.781Z,100755.41
2023-02-19T21:59:40.409Z,100766.50
2023-02-19T22:02:52.725Z,100766.72
2023-02-19T22:06:05.604Z,100778.63
2023-02-19T22:09:17.956Z,100764.94
2023-02-19T22:12:30.594Z,100775.97
2023-02-19T22:15:42.899Z,100780.03
2023-02-19T22:18:57.308Z,100797.41
2023-02-19T22:22:09.741Z,100781.94
2023-02-19T22:25:22.320Z,100800.19
2023-02-19T22:28:34.606Z,100807.16
2023-02-19T22:31:48.543Z,100811.28
2023-02-19T22:35:00.900Z,100824.66
2023-02-19T22:38:13.572Z,100826.34
2023-02-19T22:41:26.043Z,100834.09
2023-02-19T22:44:38.699Z,100828.28
2023-02-19T22:47:54.706Z,100856.88
2023-02-19T22:51:14.640Z,100842.75
2023-02-19T22:54:27.131Z,100855.81
2023-02-19T22:57:39.781Z,100865.78
2023-02-19T23:00:52.146Z,100879.28
2023-02-19T23:04:05.003Z,100886.91
2023-02-19T23:07:17.393Z,100884.50
2023-02-19T23:10:30.017Z,100902.75
2023-02-19T23:13:42.609Z,100892.13
2023-02-19T23:16:55.361Z,100907.91
2023-02-19T23:20:08.365Z,100924.56
2023-02-19T23:23:21.019Z,100933.78
2023-02-19T23:26:33.566Z,100930.28
2023-02-19T23:29:46.209Z,100932.19
2023-02-19T23:32:58.612Z,100934.66
2023-02-19T23:36:11.658Z,100934.25
2023-02-19T23:39:24.146Z,100923.22
2023-02-19T23:42:37.511Z,100930.69
2023-02-19T23:45:49.893Z,100947.16
2023-02-19T23:49:02.611Z,100946.06
2023-02-19T23:52:14.988Z,100948.25
2023-02-19T23:55:27.644Z,100939.41
2023-02-19T23:58:40.017Z,100946.88
